Time;durP1;ratioP1;P1;durP2;ratioP2;P2;SDS_P1;SDS_P2;PMS_P1;PMS_P2;Temp;Humidity;BMP_temperature;BMP_pressure;BME280_temperature;BME280_humidity;BME280_pressure;Samples;Min_cycle;Max_cycle;Signal;HPM_P1;HPM_P2
2020/12/11 00:01:27;;;;;;;22.05;9.00;;;3.30;99.90;;;;;;5066814;28;20027;-75
2020/12/11 00:03:53;;;;;;;33.97;9.40;;;3.30;99.90;;;;;;5066430;28;20049;-76
2020/12/11 00:06:20;;;;;;;21.75;8.70;;;3.30;99.90;;;;;;5066412;28;20021;-74
2020/12/11 00:08:46;;;;;;;25.52;9.57;;;3.40;99.90;;;;;;5065091;28;20083;-74
2020/12/11 00:11:11;;;;;;;25.23;9.88;;;3.40;99.90;;;;;;5066104;28;20036;-75
2020/12/11 00:13:37;;;;;;;26.80;9.73;;;3.40;99.90;;;;;;5064950;28;20021;-76
2020/12/11 00:16:05;;;;;;;32.85;9.27;;;3.40;99.90;;;;;;5064888;28;20021;-76
2020/12/11 00:18:31;;;;;;;24.90;9.85;;;3.40;99.90;;;;;;5066184;28;20027;-76
2020/12/11 00:21:00;;;;;;;18.50;8.93;;;3.40;99.90;;;;;;5065173;28;20048;-78
2020/12/11 00:23:29;;;;;;;25.10;10.90;;;3.40;99.90;;;;;;5066324;28;20029;-75
2020/12/11 00:25:59;;;;;;;38.92;12.82;;;3.30;99.90;;;;;;5066211;28;20036;-75
2020/12/11 00:28:29;;;;;;;30.55;10.85;;;3.30;99.90;;;;;;5066104;28;20032;-76
2020/12/11 00:30:57;;;;;;;24.65;9.98;;;3.30;99.90;;;;;;5066299;28;20059;-76
2020/12/11 00:33:24;;;;;;;32.65;9.70;;;3.30;99.90;;;;;;5064727;28;20117;-75
2020/12/11 00:35:50;;;;;;;26.58;9.55;;;3.30;99.90;;;;;;5064451;28;20026;-75
2020/12/11 00:38:17;;;;;;;22.48;8.13;;;3.30;99.90;;;;;;5065820;28;20080;-77
2020/12/11 00:40:43;;;;;;;29.75;10.70;;;3.30;99.90;;;;;;5064559;28;20116;-75
2020/12/11 00:43:08;;;;;;;39.03;10.70;;;3.30;99.90;;;;;;5065534;28;20029;-75
2020/12/11 00:45:34;;;;;;;20.40;8.80;;;3.30;99.90;;;;;;5064313;28;20024;-76
2020/12/11 00:48:00;;;;;;;29.90;10.70;;;3.30;99.90;;;;;;5064269;28;20032;-76
2020/12/11 00:50:28;;;;;;;26.88;10.48;;;3.30;99.90;;;;;;5064437;28;20138;-76
2020/12/11 00:52:54;;;;;;;28.83;11.02;;;3.30;99.90;;;;;;5064917;28;20025;-76
2020/12/11 00:55:21;;;;;;;31.10;9.90;;;3.30;99.90;;;;;;5063706;28;20032;-77
2020/12/11 00:57:48;;;;;;;35.70;11.27;;;3.30;99.90;;;;;;5065402;28;20139;-75
2020/12/11 01:00:16;;;;;;;21.85;9.27;;;3.30;99.90;;;;;;5064043;28;20017;-78
2020/12/11 01:02:41;;;;;;;26.83;9.88;;;3.30;99.90;;;;;;5065361;28;20025;-76
2020/12/11 01:05:07;;;;;;;39.28;11.45;;;3.30;99.90;;;;;;5065068;28;20067;-75
2020/12/11 01:07:33;;;;;;;33.88;12.57;;;3.30;99.90;;;;;;5063661;28;20021;-76
2020/12/11 01:09:59;;;;;;;36.65;9.85;;;3.30;99.90;;;;;;5063761;28;20017;-76
2020/12/11 01:12:26;;;;;;;29.42;10.05;;;3.30;99.90;;;;;;5064166;28;20037;-76
2020/12/11 01:14:52;;;;;;;27.42;9.23;;;3.30;99.90;;;;;;5065299;28;20025;-76
2020/12/11 01:17:17;;;;;;;32.60;11.13;;;3.30;99.90;;;;;;5063762;28;20390;-76
2020/12/11 01:19:43;;;;;;;26.52;9.40;;;3.30;99.90;;;;;;5065045;28;20395;-75
2020/12/11 01:22:10;;;;;;;30.65;7.97;;;3.30;99.90;;;;;;5064948;28;20512;-76
2020/12/11 01:24:35;;;;;;;29.38;8.52;;;3.30;99.90;;;;;;5064799;28;20025;-77
2020/12/11 01:27:01;;;;;;;30.35;10.88;;;3.30;99.90;;;;;;5064915;28;20027;-77
2020/12/11 01:29:26;;;;;;;24.02;8.63;;;3.30;99.90;;;;;;5063520;28;20485;-77
2020/12/11 01:31:59;;;;;;;31.98;11.35;;;3.30;99.90;;;;;;5063567;28;20032;-76
2020/12/11 01:34:26;;;;;;;24.55;8.77;;;3.30;99.90;;;;;;5063817;28;20029;-77
2020/12/11 01:36:52;;;;;;;26.58;8.50;;;3.30;99.90;;;;;;5064938;28;20021;-77
2020/12/11 01:39:18;;;;;;;35.03;9.75;;;3.30;99.90;;;;;;5063335;28;20510;-76
2020/12/11 01:41:43;;;;;;;38.58;9.40;;;3.30;99.90;;;;;;5064735;28;20020;-75
2020/12/11 01:44:10;;;;;;;30.83;10.02;;;3.30;99.90;;;;;;5064448;28;20013;-76
2020/12/11 01:46:40;;;;;;;33.55;10.25;;;3.30;99.90;;;;;;5063226;28;20043;-78
2020/12/11 01:49:11;;;;;;;27.60;9.95;;;3.30;99.90;;;;;;5064553;28;20017;-77
2020/12/11 01:51:37;;;;;;;24.58;8.68;;;3.40;99.90;;;;;;5064625;28;20036;-76
2020/12/11 01:54:04;;;;;;;30.08;10.25;;;3.40;99.90;;;;;;5064454;28;20029;-76
2020/12/11 01:56:33;;;;;;;29.15;9.27;;;3.40;99.90;;;;;;5064592;28;20409;-76
2020/12/11 01:59:04;;;;;;;23.60;8.82;;;3.30;99.90;;;;;;5063137;28;20032;-76
2020/12/11 02:01:35;;;;;;;21.20;8.30;;;3.30;99.90;;;;;;5064585;28;20056;-76
2020/12/11 02:04:03;;;;;;;21.70;9.65;;;3.30;99.90;;;;;;5064261;28;20067;-77
2020/12/11 02:06:29;;;;;;;33.60;9.77;;;3.30;99.90;;;;;;5067340;28;20028;-78
2020/12/11 02:08:56;;;;;;;22.58;8.13;;;3.30;99.90;;;;;;5067505;28;20032;-77
2020/12/11 02:11:23;;;;;;;22.85;8.50;;;3.30;99.90;;;;;;5067320;28;20037;-76
2020/12/11 02:13:49;;;;;;;26.60;9.30;;;3.30;99.90;;;;;;5068545;28;20527;-75
2020/12/11 02:16:20;;;;;;;20.42;9.07;;;3.30;99.90;;;;;;5067191;28;20070;-75
2020/12/11 02:18:45;;;;;;;27.08;8.82;;;3.30;99.90;;;;;;5067132;28;20013;-76
2020/12/11 02:21:11;;;;;;;17.05;9.05;;;3.30;99.90;;;;;;5066994;28;20151;-75
2020/12/11 02:23:37;;;;;;;21.48;8.50;;;3.30;99.90;;;;;;5068321;28;20025;-77
2020/12/11 02:26:02;;;;;;;27.88;11.25;;;3.30;99.90;;;;;;5068227;28;20028;-76
2020/12/11 02:28:32;;;;;;;18.13;7.88;;;3.30;99.90;;;;;;5068239;28;20025;-78
2020/12/11 02:30:58;;;;;;;25.20;8.05;;;3.30;99.90;;;;;;5066755;28;20044;-76
2020/12/11 02:33:23;;;;;;;24.15;10.77;;;3.30;99.90;;;;;;5068426;28;20021;-76
2020/12/11 02:35:49;;;;;;;30.20;10.52;;;3.20;99.90;;;;;;5066810;28;20035;-76
2020/12/11 02:38:15;;;;;;;24.45;8.75;;;3.20;99.90;;;;;;5067884;28;20028;-76
2020/12/11 02:40:49;;;;;;;27.63;9.38;;;3.20;99.90;;;;;;5068031;28;20020;-75
2020/12/11 02:43:15;;;;;;;30.52;10.13;;;3.20;99.90;;;;;;5068013;28;20052;-76
2020/12/11 02:45:41;;;;;;;27.65;9.32;;;3.30;99.90;;;;;;5067931;28;20055;-76
2020/12/11 02:48:06;;;;;;;14.90;6.68;;;3.20;99.90;;;;;;5067770;28;20056;-76
2020/12/11 02:50:32;;;;;;;21.70;9.20;;;3.30;99.90;;;;;;5067681;28;20027;-76
2020/12/11 02:52:58;;;;;;;20.85;7.53;;;3.30;99.90;;;;;;5067747;28;20025;-76
2020/12/11 02:55:24;;;;;;;30.75;9.48;;;3.20;99.90;;;;;;5068012;28;20032;-75
2020/12/11 02:57:49;;;;;;;20.67;7.88;;;3.20;99.90;;;;;;5067665;28;20062;-77
2020/12/11 03:00:15;;;;;;;19.80;7.63;;;3.20;99.90;;;;;;5066074;28;20030;-77
2020/12/11 03:02:40;;;;;;;16.50;6.75;;;3.20;99.90;;;;;;5066353;28;20021;-75
2020/12/11 03:05:06;;;;;;;21.02;8.98;;;3.20;99.90;;;;;;5066078;28;20079;-74
2020/12/11 03:07:31;;;;;;;27.20;9.50;;;3.20;99.90;;;;;;5067588;28;20025;-76
2020/12/11 03:09:57;;;;;;;19.45;6.97;;;3.20;99.90;;;;;;5067574;28;20025;-77
2020/12/11 03:12:22;;;;;;;22.63;8.25;;;3.20;99.90;;;;;;5066272;28;20037;-75
2020/12/11 03:14:48;;;;;;;18.10;8.65;;;3.10;99.90;;;;;;5067385;28;20102;-76
2020/12/11 03:17:13;;;;;;;17.30;7.90;;;3.10;99.90;;;;;;5066406;28;20029;-76
2020/12/11 03:19:39;;;;;;;19.98;6.07;;;3.10;99.90;;;;;;5065986;28;20050;-79
2020/12/11 03:22:04;;;;;;;18.73;7.78;;;3.10;99.90;;;;;;5067232;28;20080;-75
2020/12/11 03:24:30;;;;;;;19.98;6.93;;;3.10;99.90;;;;;;5066005;28;20029;-76
2020/12/11 03:26:56;;;;;;;19.17;8.23;;;3.20;99.90;;;;;;5066209;28;20021;-75
2020/12/11 03:29:22;;;;;;;25.40;8.80;;;3.10;99.90;;;;;;5067038;28;20073;-75
2020/12/11 03:31:47;;;;;;;22.27;9.13;;;3.20;99.90;;;;;;5065729;28;20039;-74
2020/12/11 03:34:13;;;;;;;20.50;8.10;;;3.20;99.90;;;;;;5067325;28;20021;-77
2020/12/11 03:36:38;;;;;;;14.82;6.78;;;3.20;99.90;;;;;;5065651;28;20017;-75
2020/12/11 03:39:04;;;;;;;13.88;7.85;;;3.20;99.90;;;;;;5065623;28;20025;-76
2020/12/11 03:41:30;;;;;;;17.83;7.63;;;3.20;99.90;;;;;;5066657;28;20029;-76
2020/12/11 03:43:56;;;;;;;20.13;7.75;;;3.20;99.90;;;;;;5067100;28;20028;-75
2020/12/11 03:46:22;;;;;;;16.63;7.40;;;3.20;99.90;;;;;;5066901;28;20025;-75
2020/12/11 03:48:49;;;;;;;20.90;7.15;;;3.10;99.90;;;;;;5066723;28;20071;-75
2020/12/11 03:51:17;;;;;;;16.67;7.47;;;3.20;99.90;;;;;;5065141;28;20040;-75
2020/12/11 03:53:42;;;;;;;24.25;5.22;;;3.10;99.90;;;;;;5066732;28;20028;-75
2020/12/11 03:56:08;;;;;;;13.98;6.45;;;3.20;99.90;;;;;;5065184;28;20021;-76
2020/12/11 03:58:34;;;;;;;20.70;8.27;;;3.10;99.90;;;;;;5065143;28;20021;-75
2020/12/11 04:01:00;;;;;;;25.65;7.90;;;3.10;99.90;;;;;;5066846;28;20025;-76
2020/12/11 04:03:25;;;;;;;21.63;4.65;;;3.10;99.90;;;;;;5066606;28;20049;-76
2020/12/11 04:05:51;;;;;;;21.70;8.45;;;3.10;99.90;;;;;;5065095;28;20045;-76
2020/12/11 04:08:17;;;;;;;19.60;7.45;;;3.10;99.90;;;;;;5066557;28;20019;-75
2020/12/11 04:10:42;;;;;;;20.83;7.70;;;3.10;99.90;;;;;;5066331;28;20535;-76
2020/12/11 04:13:08;;;;;;;15.20;6.15;;;3.10;99.90;;;;;;5066430;28;20056;-75
2020/12/11 04:15:33;;;;;;;15.63;6.85;;;3.10;99.90;;;;;;5066462;28;20028;-75
2020/12/11 04:17:59;;;;;;;18.95;6.35;;;3.10;99.90;;;;;;5064895;28;20013;-76
2020/12/11 04:20:24;;;;;;;26.45;8.43;;;3.10;99.90;;;;;;5066350;28;20382;-75
2020/12/11 04:22:50;;;;;;;16.40;7.10;;;3.10;99.90;;;;;;5066098;28;20025;-75
2020/12/11 04:25:15;;;;;;;16.92;7.43;;;3.10;99.90;;;;;;5066053;28;20025;-75
2020/12/11 04:27:41;;;;;;;15.98;5.70;;;3.10;99.90;;;;;;5065979;28;20025;-76
2020/12/11 04:30:06;;;;;;;20.55;7.68;;;3.20;99.90;;;;;;5065885;28;20047;-76
2020/12/11 04:32:32;;;;;;;17.52;7.68;;;3.10;99.90;;;;;;5065935;28;20032;-76
2020/12/11 04:34:58;;;;;;;15.70;6.47;;;3.10;99.90;;;;;;5065902;28;20079;-77
2020/12/11 04:37:24;;;;;;;22.23;8.20;;;3.10;99.90;;;;;;5066173;28;20106;-75
2020/12/11 04:39:49;;;;;;;17.13;7.40;;;3.10;99.90;;;;;;5064180;28;20028;-75
2020/12/11 04:42:17;;;;;;;17.50;7.00;;;3.10;99.90;;;;;;5065680;28;20017;-75
2020/12/11 04:44:43;;;;;;;21.83;7.85;;;3.10;99.90;;;;;;5064459;28;20457;-75
2020/12/11 04:47:10;;;;;;;18.13;7.38;;;3.10;99.90;;;;;;5064262;28;20032;-76
2020/12/11 04:49:36;;;;;;;18.70;7.90;;;3.20;99.90;;;;;;5064122;28;20017;-76
2020/12/11 04:52:05;;;;;;;16.92;7.47;;;3.20;99.90;;;;;;5065411;28;20092;-76
2020/12/11 04:54:38;;;;;;;20.63;8.20;;;3.20;99.90;;;;;;5064011;28;20024;-77
2020/12/11 04:57:09;;;;;;;12.13;5.63;;;3.20;99.90;;;;;;5065491;28;20024;-77
2020/12/11 04:59:35;;;;;;;10.43;5.40;;;3.20;99.90;;;;;;5065430;28;20032;-78
2020/12/11 05:02:11;;;;;;;18.67;5.22;;;3.20;99.90;;;;;;5064211;28;20378;-79
2020/12/11 05:04:38;;;;;;;11.52;5.75;;;3.10;99.90;;;;;;5065139;28;20043;-77
2020/12/11 05:07:04;;;;;;;18.45;7.88;;;3.10;99.90;;;;;;5065274;28;20043;-77
2020/12/11 05:09:29;;;;;;;16.85;6.47;;;3.10;99.90;;;;;;5065434;28;20024;-77
2020/12/11 05:11:55;;;;;;;12.00;5.18;;;3.10;99.90;;;;;;5065185;28;20060;-76
2020/12/11 05:14:34;;;;;;;15.60;6.85;;;3.10;99.90;;;;;;5065216;28;20028;-76
2020/12/11 05:17:05;;;;;;;16.95;7.80;;;3.10;99.90;;;;;;5065174;28;20054;-77
2020/12/11 05:19:33;;;;;;;23.63;8.38;;;3.10;99.90;;;;;;5065252;28;20099;-75
2020/12/11 05:22:19;;;;;;;14.57;5.72;;;3.10;99.90;;;;;;5064813;28;20108;-77
2020/12/11 05:24:47;;;;;;;20.95;5.97;;;3.10;99.90;;;;;;5064915;28;20024;-76
2020/12/11 05:27:38;;;;;;;11.82;4.72;;;3.10;99.90;;;;;;5063463;28;20021;-76
2020/12/11 05:30:07;;;;;;;6.13;3.17;;;3.10;99.90;;;;;;5064684;28;20017;-76
2020/12/11 05:33:05;;;;;;;16.38;5.85;;;3.10;99.90;;;;;;5063608;28;20063;-79
2020/12/11 05:35:31;;;;;;;10.50;4.80;;;3.10;99.90;;;;;;5064541;28;20063;-78
2020/12/11 05:38:04;;;;;;;20.45;8.63;;;3.10;99.90;;;;;;5064696;28;20487;-82
2020/12/11 05:40:32;;;;;;;11.55;5.18;;;3.10;99.90;;;;;;5064509;28;20029;-78
2020/12/11 05:43:12;;;;;;;13.82;5.10;;;3.10;99.90;;;;;;5063546;28;20017;-78
2020/12/11 05:46:06;;;;;;;14.60;5.80;;;3.10;99.90;;;;;;5064776;28;20027;-76
2020/12/11 05:48:39;;;;;;;18.20;6.97;;;3.10;99.90;;;;;;5064413;28;20059;-75
2020/12/11 05:51:15;;;;;;;11.35;5.60;;;3.10;99.90;;;;;;5064526;28;20036;-77
2020/12/11 05:53:41;;;;;;;24.20;7.88;;;3.10;99.90;;;;;;5064624;28;20045;-75
2020/12/11 05:56:07;;;;;;;18.00;8.18;;;3.10;99.90;;;;;;5063019;28;20021;-78
2020/12/11 05:58:33;;;;;;;21.42;7.47;;;3.10;99.90;;;;;;5064432;28;20035;-76
2020/12/11 06:01:00;;;;;;;9.27;4.68;;;3.10;99.90;;;;;;5063423;28;20080;-77
2020/12/11 06:03:27;;;;;;;7.63;4.60;;;3.10;99.90;;;;;;5064461;28;20045;-77
2020/12/11 06:05:57;;;;;;;13.57;5.82;;;3.10;99.90;;;;;;5064429;28;20029;-77
2020/12/11 06:08:26;;;;;;;10.95;5.65;;;3.10;99.90;;;;;;5063108;28;20021;-77
2020/12/11 06:10:52;;;;;;;12.25;5.95;;;3.10;99.90;;;;;;5063065;28;20040;-77
2020/12/11 06:13:35;;;;;;;12.32;5.78;;;3.10;99.90;;;;;;5062928;28;20025;-76
2020/12/11 06:16:03;;;;;;;8.75;5.05;;;3.10;99.90;;;;;;5064380;28;20381;-78
2020/12/11 06:18:32;;;;;;;13.85;5.40;;;3.10;99.90;;;;;;5064339;28;20033;-77
2020/12/11 06:21:00;;;;;;;16.50;8.30;;;3.10;99.90;;;;;;5063083;28;20089;-76
2020/12/11 06:23:29;;;;;;;11.82;5.65;;;3.10;99.90;;;;;;5063006;28;20029;-77
2020/12/11 06:25:57;;;;;;;13.05;4.47;;;3.10;99.90;;;;;;5064323;28;20017;-76
2020/12/11 06:28:39;;;;;;;20.35;8.30;;;3.10;99.90;;;;;;5064355;28;20040;-74
2020/12/11 06:31:15;;;;;;;12.77;6.28;;;3.10;99.90;;;;;;5064086;28;20032;-76
2020/12/11 06:33:44;;;;;;;16.08;6.40;;;3.10;99.90;;;;;;5064255;28;20078;-77
2020/12/11 06:36:10;;;;;;;18.30;6.18;;;3.10;99.90;;;;;;5062796;28;20029;-75
2020/12/11 06:38:47;;;;;;;8.60;4.55;;;3.10;99.90;;;;;;5063792;28;20025;-76
2020/12/11 06:41:31;;;;;;;14.65;6.55;;;3.10;99.90;;;;;;5062766;28;20029;-76
2020/12/11 06:43:59;;;;;;;13.30;5.03;;;3.10;99.90;;;;;;5064073;28;20473;-76
2020/12/11 06:46:27;;;;;;;11.15;4.45;;;3.10;99.90;;;;;;5064349;28;20021;-76
2020/12/11 06:49:17;;;;;;;15.73;6.85;;;3.00;99.90;;;;;;5062712;28;20043;-76
2020/12/11 06:51:45;;;;;;;7.13;3.15;;;3.00;99.90;;;;;;5065002;28;20040;-75
2020/12/11 06:54:19;;;;;;;13.52;5.95;;;3.10;99.90;;;;;;5067589;28;20021;-75
2020/12/11 06:56:46;;;;;;;;;;;3.00;99.90;;;;;;5067956;28;20172;-76
2020/12/11 06:59:25;;;;;;;14.13;5.65;;;3.00;99.90;;;;;;5066251;28;19968;-76
2020/12/11 07:01:57;;;;;;;11.05;4.28;;;3.00;99.90;;;;;;5067632;28;20013;-77
2020/12/11 07:04:37;;;;;;;12.73;5.68;;;3.00;99.90;;;;;;5066190;28;20298;-77
2020/12/11 07:07:03;;;;;;;9.98;4.93;;;3.00;99.90;;;;;;5067449;28;20025;-76
2020/12/11 07:09:30;;;;;;;13.18;5.05;;;3.00;99.90;;;;;;5067337;28;20471;-75
2020/12/11 07:11:57;;;;;;;8.88;5.38;;;3.00;99.90;;;;;;5066235;28;20116;-75
2020/12/11 07:14:28;;;;;;;12.95;4.78;;;3.00;99.90;;;;;;5065991;28;20029;-75
2020/12/11 07:16:53;;;;;;;9.27;3.80;;;3.00;99.90;;;;;;5067378;28;20056;-75
2020/12/11 07:19:19;;;;;;;16.85;7.05;;;2.90;99.90;;;;;;5066886;28;20131;-76
2020/12/11 07:21:49;;;;;;;17.08;6.72;;;2.90;99.90;;;;;;5066003;28;20025;-74
2020/12/11 07:24:15;;;;;;;16.30;6.65;;;2.90;99.90;;;;;;5066952;28;20051;-75
2020/12/11 07:26:41;;;;;;;13.27;6.47;;;3.00;99.90;;;;;;5065930;28;20021;-73
2020/12/11 07:29:13;;;;;;;17.08;7.65;;;2.90;99.90;;;;;;5067000;28;20017;-74
2020/12/11 07:31:41;;;;;;;11.98;6.28;;;3.00;99.90;;;;;;5065920;28;20033;-75
2020/12/11 07:34:14;;;;;;;16.75;8.13;;;3.00;99.90;;;;;;5066893;28;20036;-75
2020/12/11 07:36:40;;;;;;;16.27;5.68;;;3.00;99.90;;;;;;5065886;28;20048;-74
2020/12/11 07:39:17;;;;;;;15.32;6.75;;;2.90;99.90;;;;;;5066652;28;20029;-77
2020/12/11 07:41:54;;;;;;;5.32;2.63;;;3.00;99.90;;;;;;5066921;28;20025;-77
2020/12/11 07:44:22;;;;;;;24.70;6.57;;;3.00;99.90;;;;;;5062773;28;20033;-74
2020/12/11 07:46:48;;;;;;;16.50;6.88;;;3.00;99.90;;;;;;5066477;28;20132;-75
2020/12/11 07:49:14;;;;;;;11.68;4.53;;;3.00;99.90;;;;;;5066281;28;20021;-75
2020/12/11 07:51:47;;;;;;;16.25;6.32;;;3.10;99.90;;;;;;5064900;28;20044;-75
2020/12/11 07:54:13;;;;;;;16.30;5.28;;;3.10;99.90;;;;;;5066124;28;20028;-75
2020/12/11 07:56:39;;;;;;;18.50;7.53;;;3.10;99.90;;;;;;5064703;28;20017;-75
2020/12/11 07:59:14;;;;;;;12.18;5.80;;;3.10;99.90;;;;;;5064594;28;20021;-74
2020/12/11 08:01:46;;;;;;;14.02;5.53;;;3.20;99.90;;;;;;5066361;28;20021;-77
2020/12/11 08:04:13;;;;;;;15.90;6.93;;;3.10;99.90;;;;;;5065814;28;20051;-74
2020/12/11 08:06:38;;;;;;;13.40;6.30;;;3.10;99.90;;;;;;5065873;28;20025;-76
2020/12/11 08:09:11;;;;;;;19.05;6.53;;;3.10;99.90;;;;;;5064894;28;20088;-75
2020/12/11 08:11:39;;;;;;;12.82;7.22;;;3.10;99.90;;;;;;5064961;28;20037;-75
2020/12/11 08:14:04;;;;;;;11.57;5.32;;;3.10;99.90;;;;;;5065926;28;20046;-74
2020/12/11 08:16:30;;;;;;;14.75;5.85;;;3.10;99.90;;;;;;5066546;28;20069;-74
2020/12/11 08:18:57;;;;;;;13.18;7.40;;;3.10;99.90;;;;;;5066448;28;20032;-76
2020/12/11 08:21:32;;;;;;;14.38;7.13;;;3.10;99.90;;;;;;5066163;28;20028;-75
2020/12/11 08:23:59;;;;;;;15.68;6.82;;;3.10;99.90;;;;;;5065929;28;20032;-74
2020/12/11 08:26:26;;;;;;;13.10;6.57;;;3.10;99.90;;;;;;5066361;28;20021;-72
2020/12/11 08:29:06;;;;;;;16.60;6.97;;;3.10;99.90;;;;;;5066291;28;20017;-75
2020/12/11 08:31:46;;;;;;;10.30;5.53;;;3.20;99.90;;;;;;5065913;28;20031;-76
2020/12/11 08:34:14;;;;;;;13.40;5.82;;;3.20;99.90;;;;;;5065421;28;20033;-75
2020/12/11 08:36:42;;;;;;;12.13;5.70;;;3.20;99.90;;;;;;5064049;28;20021;-75
2020/12/11 08:39:23;;;;;;;23.33;7.90;;;3.20;99.90;;;;;;5064464;28;20017;-75
2020/12/11 08:42:19;;;;;;;10.82;5.55;;;3.20;99.90;;;;;;5064398;28;20064;-77
2020/12/11 08:45:20;;;;;;;11.32;4.88;;;3.20;99.90;;;;;;5064959;28;20171;-76
2020/12/11 08:52:35;;;;;;;20.48;6.15;;;3.20;99.90;;;;;;5065585;28;20139;-75
2020/12/11 08:55:01;;;;;;;13.05;6.15;;;3.30;99.90;;;;;;5065635;28;20024;-76
2020/12/11 08:57:30;;;;;;;19.65;6.85;;;3.30;99.90;;;;;;5065454;28;20032;-78
2020/12/11 08:59:56;;;;;;;17.92;6.43;;;3.30;99.90;;;;;;5065326;28;20100;-74
2020/12/11 09:02:22;;;;;;;6.28;4.20;;;3.30;99.90;;;;;;5065460;28;20041;-75
2020/12/11 09:04:47;;;;;;;16.13;6.95;;;3.30;99.90;;;;;;5064997;28;20103;-75
2020/12/11 09:07:13;;;;;;;9.15;4.70;;;3.40;99.90;;;;;;5065104;28;20025;-75
2020/12/11 09:09:39;;;;;;;12.38;5.13;;;3.40;99.90;;;;;;5065413;28;20017;-75
2020/12/11 09:12:04;;;;;;;13.32;6.07;;;3.40;99.90;;;;;;5065122;28;20036;-74
2020/12/11 09:14:30;;;;;;;17.10;6.43;;;3.40;99.90;;;;;;5064214;28;20021;-74
2020/12/11 09:16:55;;;;;;;9.43;5.65;;;3.40;99.90;;;;;;5064994;28;20044;-73
2020/12/11 09:19:21;;;;;;;18.80;6.28;;;3.40;99.90;;;;;;5064880;28;20017;-73
2020/12/11 09:21:47;;;;;;;16.35;5.65;;;3.40;99.90;;;;;;5064846;28;20021;-73
2020/12/11 09:24:13;;;;;;;15.60;5.82;;;3.40;99.90;;;;;;5064528;28;20028;-74
2020/12/11 09:26:39;;;;;;;13.10;6.22;;;3.40;99.90;;;;;;5064836;28;20080;-74
2020/12/11 09:29:24;;;;;;;12.82;5.18;;;3.40;99.90;;;;;;5064522;28;20028;-73
2020/12/11 09:31:52;;;;;;;13.90;5.28;;;3.40;99.90;;;;;;5062942;28;20048;-75
2020/12/11 09:34:18;;;;;;;19.27;6.45;;;3.40;99.90;;;;;;5064563;28;20025;-74
2020/12/11 09:36:43;;;;;;;15.30;6.57;;;3.40;99.90;;;;;;5063159;28;20346;-74
2020/12/11 09:39:09;;;;;;;9.45;4.22;;;3.40;99.90;;;;;;5064301;28;20073;-77
2020/12/11 09:41:40;;;;;;;19.98;5.70;;;3.50;99.90;;;;;;5063042;28;20024;-76
2020/12/11 09:49:50;;;;;;;7.97;3.95;;;3.60;99.90;;;;;;5073133;28;20028;-75
2020/12/11 09:54:53;;;;;;;14.18;5.68;;;3.70;99.90;;;;;;5064738;28;20031;-73
2020/12/11 09:57:19;;;;;;;14.45;5.47;;;3.70;99.90;;;;;;5062837;28;20092;-75
2020/12/11 09:59:53;;;;;;;10.63;6.50;;;3.60;99.90;;;;;;5063918;28;20021;-75
2020/12/11 10:04:47;;;;;;;9.00;5.70;;;3.70;99.90;;;;;;5064027;28;20052;-74
2020/12/11 10:07:14;;;;;;;11.15;5.47;;;3.70;99.90;;;;;;5064462;28;20236;-77
2020/12/11 10:09:42;;;;;;;10.43;5.57;;;3.70;99.90;;;;;;5064258;28;20050;-75
2020/12/11 10:12:08;;;;;;;12.45;5.72;;;3.70;99.90;;;;;;5064325;28;20035;-75
2020/12/11 10:14:45;;;;;;;13.43;5.85;;;3.80;99.90;;;;;;5062832;28;20055;-76
2020/12/11 10:17:11;;;;;;;17.27;6.28;;;3.70;99.90;;;;;;5064284;28;20021;-76
2020/12/11 10:19:37;;;;;;;10.18;4.30;;;3.70;99.90;;;;;;5064334;28;20031;-76
2020/12/11 10:22:02;;;;;;;16.30;7.05;;;3.70;99.90;;;;;;5063082;28;20025;-76
2020/12/11 10:24:30;;;;;;;11.52;5.22;;;3.70;99.90;;;;;;5064340;28;20021;-77
2020/12/11 10:26:59;;;;;;;7.43;4.30;;;3.70;99.90;;;;;;5068043;28;20033;-76
2020/12/11 10:29:24;;;;;;;9.55;5.25;;;3.70;99.90;;;;;;5067020;28;20045;-75
2020/12/11 10:31:50;;;;;;;15.20;5.93;;;3.70;99.90;;;;;;5068057;28;20043;-75
2020/12/11 10:34:16;;;;;;;8.75;4.13;;;3.80;99.90;;;;;;5068265;28;20572;-77
2020/12/11 10:36:42;;;;;;;11.18;4.10;;;3.80;99.90;;;;;;5066747;28;20020;-73
2020/12/11 10:39:09;;;;;;;14.18;5.32;;;3.80;99.90;;;;;;5068062;28;20031;-76
2020/12/11 10:41:35;;;;;;;14.07;6.18;;;3.80;99.90;;;;;;5068143;28;20024;-77
2020/12/11 10:44:02;;;;;;;12.88;5.38;;;3.80;99.90;;;;;;5067628;28;20080;-74
2020/12/11 10:46:28;;;;;;;11.02;4.75;;;3.80;99.90;;;;;;5066939;28;20052;-76
2020/12/11 10:48:54;;;;;;;14.52;6.55;;;3.80;99.90;;;;;;5068223;28;20128;-75
2020/12/11 10:51:19;;;;;;;6.93;4.22;;;3.80;99.90;;;;;;5066622;28;20048;-76
2020/12/11 10:53:46;;;;;;;12.90;5.00;;;3.80;99.90;;;;;;5065999;28;20024;-75
2020/12/11 10:56:12;;;;;;;8.38;4.97;;;3.80;99.90;;;;;;5067192;28;20025;-73
2020/12/11 10:58:38;;;;;;;9.98;5.43;;;3.80;99.90;;;;;;5067348;28;20454;-74
2020/12/11 11:01:06;;;;;;;11.23;4.65;;;3.80;99.90;;;;;;5065845;28;20139;-75
2020/12/11 11:03:36;;;;;;;8.02;3.95;;;3.80;99.90;;;;;;5067476;28;20079;-75
2020/12/11 11:06:09;;;;;;;13.77;4.90;;;3.80;99.90;;;;;;5067479;28;20033;-76
2020/12/11 11:08:43;;;;;;;10.88;5.22;;;3.80;99.90;;;;;;5067378;28;20017;-75
2020/12/11 11:11:09;;;;;;;11.05;4.85;;;3.70;99.90;;;;;;5066893;28;20029;-75
2020/12/11 11:14:03;;;;;;;12.82;5.15;;;3.80;99.90;;;;;;5066777;28;20074;-75
2020/12/11 11:17:37;;;;;;;8.00;4.45;;;3.80;99.90;;;;;;5066788;28;20013;-76
2020/12/11 11:19:37;;;;;;;12.85;5.78;;;3.80;99.90;;;;;;5069461;28;20036;-77
2020/12/11 11:22:19;;;;;;;11.15;5.40;;;3.80;99.90;;;;;;5066980;28;20021;-77
2020/12/11 11:25:37;;;;;;;7.80;3.55;;;3.80;99.90;;;;;;5070547;28;20036;-73
2020/12/11 11:28:00;;;;;;;6.65;3.42;;;3.80;99.90;;;;;;5066637;28;20392;-74
2020/12/11 11:30:26;;;;;;;9.15;5.22;;;3.80;99.90;;;;;;5067204;28;20013;-73
2020/12/11 11:32:53;;;;;;;11.52;4.45;;;3.80;99.90;;;;;;5065443;28;20045;-74
2020/12/11 11:35:19;;;;;;;8.93;4.65;;;3.70;99.90;;;;;;5065974;28;20028;-75
2020/12/11 11:37:46;;;;;;;12.68;5.28;;;3.80;99.90;;;;;;5065196;28;20024;-73
2020/12/11 11:40:12;;;;;;;11.07;4.75;;;3.80;99.90;;;;;;5066600;28;20044;-75
2020/12/11 11:42:38;;;;;;;10.85;4.75;;;3.80;99.90;;;;;;5064979;28;20021;-75
2020/12/11 11:45:06;;;;;;;12.27;4.57;;;3.80;99.90;;;;;;5064611;28;20456;-75
2020/12/11 11:47:34;;;;;;;9.80;4.32;;;3.90;99.90;;;;;;5064858;28;20128;-75
2020/12/11 11:52:34;;;;;;;11.48;6.38;;;3.90;99.90;;;;;;5066420;28;20054;-75
2020/12/11 11:55:00;;;;;;;9.75;5.13;;;4.00;99.90;;;;;;5064694;28;20025;-79
2020/12/11 11:57:26;;;;;;;26.73;5.20;;;3.90;99.90;;;;;;5064909;28;20032;-75
2020/12/11 11:59:52;;;;;;;11.05;4.63;;;3.90;99.90;;;;;;5063756;28;20017;-75
2020/12/11 12:02:18;;;;;;;8.07;4.07;;;4.00;99.90;;;;;;5066202;28;20072;-75
2020/12/11 12:04:43;;;;;;;13.55;4.97;;;4.00;99.90;;;;;;5065416;28;20052;-75
2020/12/11 12:07:09;;;;;;;14.20;5.40;;;4.00;99.90;;;;;;5065540;28;20049;-74
2020/12/11 12:09:35;;;;;;;14.50;5.30;;;4.10;99.90;;;;;;5064265;28;20075;-75
2020/12/11 12:12:01;;;;;;;9.93;4.82;;;4.10;99.90;;;;;;5065473;28;20056;-74
2020/12/11 12:14:27;;;;;;;12.32;5.25;;;4.10;99.90;;;;;;5065873;28;20016;-73
2020/12/11 12:16:55;;;;;;;8.90;3.83;;;4.10;99.90;;;;;;5064194;28;20024;-74
2020/12/11 12:19:36;;;;;;;8.32;4.45;;;4.20;99.90;;;;;;5065538;28;20024;-74
2020/12/11 12:29:49;;;;;;;8.77;4.88;;;4.30;99.90;;;;;;5065100;28;19905;-75
2020/12/11 12:32:18;;;;;;;7.15;3.30;;;4.30;99.90;;;;;;5062991;28;20406;-76
2020/12/11 12:34:49;;;;;;;12.20;5.78;;;4.40;99.90;;;;;;5065034;28;20058;-74
2020/12/11 12:44:43;;;;;;;11.05;4.82;;;4.60;99.90;;;;;;5064951;28;20170;-75
2020/12/11 12:47:08;;;;;;;9.90;4.47;;;4.50;99.90;;;;;;5064856;28;20024;-76
2020/12/11 12:49:34;;;;;;;8.07;2.88;;;4.50;99.90;;;;;;5063683;28;20381;-77
2020/12/11 12:52:00;;;;;;;12.15;6.13;;;4.50;99.90;;;;;;5064545;28;20021;-75
2020/12/11 12:54:25;;;;;;;7.35;4.13;;;4.50;99.90;;;;;;5064517;28;20025;-74
2020/12/11 12:56:55;;;;;;;8.00;4.53;;;4.50;99.90;;;;;;5062897;28;20021;-74
2020/12/11 12:59:39;;;;;;;9.52;3.15;;;4.50;99.90;;;;;;5062998;28;20323;-76
2020/12/11 13:07:11;;;;;;;16.75;5.63;;;4.40;99.90;;;;;;5064427;28;20037;-72
2020/12/11 13:09:37;;;;;;;7.32;3.75;;;4.40;99.90;;;;;;5064330;28;20017;-75
2020/12/11 13:12:03;;;;;;;10.82;4.32;;;4.40;99.90;;;;;;5064099;28;20040;-75
2020/12/11 13:14:29;;;;;;;5.25;2.60;;;4.50;99.90;;;;;;5062886;28;20028;-75
2020/12/11 13:16:54;;;;;;;21.27;6.35;;;4.50;99.90;;;;;;5062981;28;20044;-75
2020/12/11 13:19:24;;;;;;;10.50;5.65;;;4.40;99.90;;;;;;5064152;28;20474;-74
2020/12/11 13:22:09;;;;;;;11.65;5.20;;;4.50;99.90;;;;;;5064129;28;20356;-76
2020/12/11 13:27:25;;;;;;;8.48;4.20;;;4.50;99.90;;;;;;5064313;28;20036;-76
2020/12/11 13:29:51;;;;;;;13.52;5.70;;;4.60;99.90;;;;;;5064008;28;20402;-75
2020/12/11 13:32:18;;;;;;;13.82;4.82;;;4.60;99.90;;;;;;5062783;28;20040;-75
2020/12/11 13:34:44;;;;;;;10.95;5.28;;;4.60;99.90;;;;;;5063925;28;20549;-75
2020/12/11 13:37:10;;;;;;;9.57;4.75;;;4.60;99.90;;;;;;5063670;28;20016;-75